PILOTS ONLINE: 485    ATC ONLINE: 75

CBBC - Bella Bella (Campbell Island) Airport

Location

City Bella Bella
Country  Canada
Latitude 52° 11' 6" N
Longitude 128° 9' 25" W
Elevation 141 ft
Type Small Airport

Runways

13/31 3700 ft / 75 ft

Weather

METAR
2014/07/30 21:00
CBBC 302100Z AUTO 33009G15KT 9SM CLR 19/11 A3026 RMK SLP248 DENSITY ALT 200FT
TAF
2014/07/30 19:00
TAF CBBC 301838Z 3019/3105 30005KT P6SM FEW010 
      RMK FCST BASED ON AUTO OBS. NXT FCST BY 310100Z

Outbound flights

Inbound flights